sensor_id;sensor_type;location;lat;lon;timestamp;pressure;altitude;pressure_sealevel;temperature;humidity
83514;BME280;73447;53.262;10.424;2024-02-15T00:00:05;101467.34;;;9.62;100.00
83514;BME280;73447;53.262;10.424;2024-02-15T00:02:33;101461.38;;;9.78;100.00
83514;BME280;73447;53.262;10.424;2024-02-15T00:04:58;101457.09;;;9.71;100.00
83514;BME280;73447;53.262;10.424;2024-02-15T00:07:23;101467.16;;;9.82;100.00
83514;BME280;73447;53.262;10.424;2024-02-15T00:09:49;101460.28;;;9.86;100.00
83514;BME280;73447;53.262;10.424;2024-02-15T00:12:14;101462.50;;;9.96;100.00
83514;BME280;73447;53.262;10.424;2024-02-15T00:14:40;101463.03;;;9.79;100.00
83514;BME280;73447;53.262;10.424;2024-02-15T00:17:05;101454.13;;;9.79;100.00
83514;BME280;73447;53.262;10.424;2024-02-15T00:19:31;101461.16;;;9.80;100.00
83514;BME280;73447;53.262;10.424;2024-02-15T00:21:56;101461.09;;;9.87;100.00
83514;BME280;73447;53.262;10.424;2024-02-15T00:24:22;101467.91;;;9.71;100.00
83514;BME280;73447;53.262;10.424;2024-02-15T00:26:49;101460.88;;;9.88;100.00
83514;BME280;73447;53.262;10.424;2024-02-15T00:29:14;101463.19;;;9.59;100.00
83514;BME280;73447;53.262;10.424;2024-02-15T00:31:40;101460.47;;;9.66;100.00
83514;BME280;73447;53.262;10.424;2024-02-15T00:34:05;101461.75;;;9.82;100.00
83514;BME280;73447;53.262;10.424;2024-02-15T00:36:31;101470.22;;;9.92;100.00
83514;BME280;73447;53.262;10.424;2024-02-15T00:38:58;101460.50;;;9.84;100.00
83514;BME280;73447;53.262;10.424;2024-02-15T00:41:24;101461.91;;;9.69;100.00
83514;BME280;73447;53.262;10.424;2024-02-15T00:43:50;101466.22;;;9.95;100.00
83514;BME280;73447;53.262;10.424;2024-02-15T00:46:18;101472.44;;;9.95;100.00
83514;BME280;73447;53.262;10.424;2024-02-15T00:48:43;101466.13;;;9.83;100.00
83514;BME280;73447;53.262;10.424;2024-02-15T00:51:09;101462.88;;;9.99;100.00
83514;BME280;73447;53.262;10.424;2024-02-15T00:53:34;101462.13;;;9.92;100.00
83514;BME280;73447;53.262;10.424;2024-02-15T00:56:00;101471.13;;;10.05;100.00
83514;BME280;73447;53.262;10.424;2024-02-15T00:58:26;101465.91;;;9.84;100.00
83514;BME280;73447;53.262;10.424;2024-02-15T01:00:52;101469.63;;;9.83;100.00
83514;BME280;73447;53.262;10.424;2024-02-15T01:03:19;101472.38;;;10.02;100.00
83514;BME280;73447;53.262;10.424;2024-02-15T01:05:45;101463.03;;;9.79;100.00
83514;BME280;73447;53.262;10.424;2024-02-15T01:08:10;101460.72;;;9.83;100.00
83514;BME280;73447;53.262;10.424;2024-02-15T01:10:36;101473.34;;;9.89;100.00
83514;BME280;73447;53.262;10.424;2024-02-15T01:13:02;101468.66;;;10.03;100.00
83514;BME280;73447;53.262;10.424;2024-02-15T01:15:27;101474.59;;;9.87;100.00
83514;BME280;73447;53.262;10.424;2024-02-15T01:17:53;101468.97;;;9.88;100.00
83514;BME280;73447;53.262;10.424;2024-02-15T01:20:18;101468.88;;;10.01;100.00
83514;BME280;73447;53.262;10.424;2024-02-15T01:22:46;101476.31;;;9.81;100.00
83514;BME280;73447;53.262;10.424;2024-02-15T01:25:11;101476.53;;;10.05;100.00
83514;BME280;73447;53.262;10.424;2024-02-15T01:27:38;101472.06;;;9.92;100.00
83514;BME280;73447;53.262;10.424;2024-02-15T01:30:04;101470.09;;;10.06;100.00
83514;BME280;73447;53.262;10.424;2024-02-15T01:32:30;101463.59;;;9.88;100.00
83514;BME280;73447;53.262;10.424;2024-02-15T01:34:56;101470.00;;;9.94;100.00
83514;BME280;73447;53.262;10.424;2024-02-15T01:37:22;101470.91;;;10.06;100.00
83514;BME280;73447;53.262;10.424;2024-02-15T01:39:47;101476.84;;;9.90;100.00
83514;BME280;73447;53.262;10.424;2024-02-15T01:42:13;101469.69;;;10.02;100.00
83514;BME280;73447;53.262;10.424;2024-02-15T01:44:42;101465.94;;;10.03;100.00
83514;BME280;73447;53.262;10.424;2024-02-15T01:47:10;101460.78;;;10.01;100.00
83514;BME280;73447;53.262;10.424;2024-02-15T01:49:36;101461.94;;;10.12;100.00
83514;BME280;73447;53.262;10.424;2024-02-15T01:52:05;101457.78;;;10.10;100.00
83514;BME280;73447;53.262;10.424;2024-02-15T01:54:34;101458.50;;;9.98;100.00
83514;BME280;73447;53.262;10.424;2024-02-15T01:57:01;101459.13;;;10.00;100.00
83514;BME280;73447;53.262;10.424;2024-02-15T01:59:28;101460.28;;;10.11;100.00
83514;BME280;73447;53.262;10.424;2024-02-15T02:01:54;101454.38;;;10.21;100.00
83514;BME280;73447;53.262;10.424;2024-02-15T02:04:20;101463.03;;;10.05;100.00
83514;BME280;73447;53.262;10.424;2024-02-15T02:06:45;101453.91;;;10.24;100.00
83514;BME280;73447;53.262;10.424;2024-02-15T02:09:11;101458.16;;;10.13;100.00
83514;BME280;73447;53.262;10.424;2024-02-15T02:11:41;101452.69;;;10.20;100.00
83514;BME280;73447;53.262;10.424;2024-02-15T02:14:07;101459.50;;;10.04;100.00
83514;BME280;73447;53.262;10.424;2024-02-15T02:16:33;101450.13;;;10.07;100.00
83514;BME280;73447;53.262;10.424;2024-02-15T02:19:00;101455.31;;;10.08;100.00
83514;BME280;73447;53.262;10.424;2024-02-15T02:21:27;101462.81;;;10.06;100.00
83514;BME280;73447;53.262;10.424;2024-02-15T02:23:55;101451.13;;;10.12;100.00
83514;BME280;73447;53.262;10.424;2024-02-15T02:26:22;101459.28;;;10.06;100.00
83514;BME280;73447;53.262;10.424;2024-02-15T02:28:48;101448.38;;;10.19;100.00
83514;BME280;73447;53.262;10.424;2024-02-15T02:31:14;101454.97;;;10.23;100.00
83514;BME280;73447;53.262;10.424;2024-02-15T02:33:41;101456.22;;;10.20;100.00
83514;BME280;73447;53.262;10.424;2024-02-15T02:36:07;101454.75;;;10.25;100.00
83514;BME280;73447;53.262;10.424;2024-02-15T02:38:35;101462.75;;;10.13;100.00
83514;BME280;73447;53.262;10.424;2024-02-15T02:41:03;101452.25;;;10.05;100.00
83514;BME280;73447;53.262;10.424;2024-02-15T02:43:29;101454.66;;;10.13;100.00
83514;BME280;73447;53.262;10.424;2024-02-15T02:45:54;101458.47;;;10.24;100.00
83514;BME280;73447;53.262;10.424;2024-02-15T02:48:20;101460.34;;;10.23;100.00
83514;BME280;73447;53.262;10.424;2024-02-15T02:50:46;101458.84;;;10.27;100.00
83514;BME280;73447;53.262;10.424;2024-02-15T02:53:12;101460.34;;;10.23;100.00
83514;BME280;73447;53.262;10.424;2024-02-15T02:55:39;101458.53;;;10.17;100.00
83514;BME280;73447;53.262;10.424;2024-02-15T02:58:05;101457.28;;;10.19;100.00
83514;BME280;73447;53.262;10.424;2024-02-15T03:00:32;101457.66;;;10.23;100.00
83514;BME280;73447;53.262;10.424;2024-02-15T03:02:58;101456.63;;;10.24;100.00
83514;BME280;73447;53.262;10.424;2024-02-15T03:05:25;101447.75;;;10.17;100.00
83514;BME280;73447;53.262;10.424;2024-02-15T03:07:50;101451.66;;;10.21;100.00
83514;BME280;73447;53.262;10.424;2024-02-15T03:10:17;101449.09;;;10.33;100.00
83514;BME280;73447;53.262;10.424;2024-02-15T03:12:44;101450.97;;;10.32;100.00
83514;BME280;73447;53.262;10.424;2024-02-15T03:15:12;101451.38;;;10.29;100.00
83514;BME280;73447;53.262;10.424;2024-02-15T03:17:39;101451.34;;;10.36;100.00
83514;BME280;73447;53.262;10.424;2024-02-15T03:20:09;101448.97;;;10.21;100.00
83514;BME280;73447;53.262;10.424;2024-02-15T03:22:55;101452.19;;;10.30;100.00
83514;BME280;73447;53.262;10.424;2024-02-15T03:25:21;101443.88;;;10.31;100.00
83514;BME280;73447;53.262;10.424;2024-02-15T03:27:52;101448.56;;;10.43;100.00
83514;BME280;73447;53.262;10.424;2024-02-15T03:30:19;101444.72;;;10.50;100.00
83514;BME280;73447;53.262;10.424;2024-02-15T03:32:48;101451.34;;;10.54;99.88
83514;BME280;73447;53.262;10.424;2024-02-15T03:35:15;101460.41;;;10.42;100.00
83514;BME280;73447;53.262;10.424;2024-02-15T03:37:40;101469.38;;;10.35;99.72
83514;BME280;73447;53.262;10.424;2024-02-15T03:40:08;101459.59;;;10.41;100.00
83514;BME280;73447;53.262;10.424;2024-02-15T03:42:34;101469.38;;;10.54;99.97
83514;BME280;73447;53.262;10.424;2024-02-15T03:45:06;101465.22;;;10.58;99.96
83514;BME280;73447;53.262;10.424;2024-02-15T03:47:35;101462.94;;;10.55;99.74
83514;BME280;73447;53.262;10.424;2024-02-15T03:50:05;101470.13;;;10.24;100.00
83514;BME280;73447;53.262;10.424;2024-02-15T03:52:31;101471.88;;;10.12;100.00
83514;BME280;73447;53.262;10.424;2024-02-15T03:54:57;101473.59;;;10.50;100.00
83514;BME280;73447;53.262;10.424;2024-02-15T03:57:26;101478.47;;;10.41;100.00
83514;BME280;73447;53.262;10.424;2024-02-15T03:59:52;101487.19;;;10.18;100.00
83514;BME280;73447;53.262;10.424;2024-02-15T04:02:23;101486.09;;;10.26;100.00
83514;BME280;73447;53.262;10.424;2024-02-15T04:04:49;101490.78;;;10.30;100.00
83514;BME280;73447;53.262;10.424;2024-02-15T04:07:18;101496.09;;;10.44;100.00
83514;BME280;73447;53.262;10.424;2024-02-15T04:09:44;101490.47;;;10.45;100.00
83514;BME280;73447;53.262;10.424;2024-02-15T04:12:10;101499.16;;;10.47;100.00
83514;BME280;73447;53.262;10.424;2024-02-15T04:14:37;101504.28;;;10.30;100.00
83514;BME280;73447;53.262;10.424;2024-02-15T04:17:04;101495.50;;;10.42;100.00
83514;BME280;73447;53.262;10.424;2024-02-15T04:19:30;101487.34;;;10.48;100.00
83514;BME280;73447;53.262;10.424;2024-02-15T04:21:56;101488.63;;;10.46;99.80
83514;BME280;73447;53.262;10.424;2024-02-15T04:24:21;101485.75;;;10.59;100.00
83514;BME280;73447;53.262;10.424;2024-02-15T04:26:48;101486.81;;;10.58;99.85
83514;BME280;73447;53.262;10.424;2024-02-15T04:29:15;101495.88;;;10.64;99.94
83514;BME280;73447;53.262;10.424;2024-02-15T04:31:41;101492.88;;;10.53;99.98
83514;BME280;73447;53.262;10.424;2024-02-15T04:34:08;101492.81;;;10.60;100.00
83514;BME280;73447;53.262;10.424;2024-02-15T04:36:34;101489.28;;;10.41;99.97
83514;BME280;73447;53.262;10.424;2024-02-15T04:39:00;101495.06;;;10.45;100.00
83514;BME280;73447;53.262;10.424;2024-02-15T04:41:29;101488.75;;;10.32;99.76
83514;BME280;73447;53.262;10.424;2024-02-15T04:43:55;101490.25;;;10.47;100.00
83514;BME280;73447;53.262;10.424;2024-02-15T04:46:20;101496.41;;;10.54;99.72
83514;BME280;73447;53.262;10.424;2024-02-15T04:48:50;101499.16;;;10.47;100.00
83514;BME280;73447;53.262;10.424;2024-02-15T04:51:16;101491.00;;;10.54;99.95
83514;BME280;73447;53.262;10.424;2024-02-15T04:53:45;101496.41;;;10.54;99.95
83514;BME280;73447;53.262;10.424;2024-02-15T04:56:14;101486.38;;;10.43;99.80
83514;BME280;73447;53.262;10.424;2024-02-15T04:58:40;101499.00;;;10.42;100.00
83514;BME280;73447;53.262;10.424;2024-02-15T05:01:19;101500.97;;;10.53;99.96
83514;BME280;73447;53.262;10.424;2024-02-15T05:03:45;101506.16;;;10.36;100.00
83514;BME280;73447;53.262;10.424;2024-02-15T05:06:11;101511.03;;;10.46;100.00
83514;BME280;73447;53.262;10.424;2024-02-15T05:08:38;101514.91;;;10.32;100.00
83514;BME280;73447;53.262;10.424;2024-02-15T05:11:08;101512.00;;;10.52;100.00
83514;BME280;73447;53.262;10.424;2024-02-15T05:13:39;101507.84;;;10.31;100.00
83514;BME280;73447;53.262;10.424;2024-02-15T05:16:05;101504.97;;;10.32;100.00
83514;BME280;73447;53.262;10.424;2024-02-15T05:18:31;101511.56;;;10.55;100.00
83514;BME280;73447;53.262;10.424;2024-02-15T05:20:56;101508.41;;;10.39;99.97
83514;BME280;73447;53.262;10.424;2024-02-15T05:23:22;101514.19;;;10.43;100.00
83514;BME280;73447;53.262;10.424;2024-02-15T05:25:47;101517.75;;;10.37;100.00
83514;BME280;73447;53.262;10.424;2024-02-15T05:28:12;101518.13;;;10.40;100.00
83514;BME280;73447;53.262;10.424;2024-02-15T05:30:38;101515.28;;;10.35;100.00
83514;BME280;73447;53.262;10.424;2024-02-15T05:33:05;101513.81;;;10.58;100.00
83514;BME280;73447;53.262;10.424;2024-02-15T05:35:33;101511.41;;;10.50;99.93
83514;BME280;73447;53.262;10.424;2024-02-15T05:38:00;101520.41;;;10.44;100.00
83514;BME280;73447;53.262;10.424;2024-02-15T05:40:29;101507.28;;;10.47;100.00
83514;BME280;73447;53.262;10.424;2024-02-15T05:42:56;101518.13;;;10.40;100.00
83514;BME280;73447;53.262;10.424;2024-02-15T05:47:51;101509.00;;;10.42;100.00
83514;BME280;73447;53.262;10.424;2024-02-15T05:50:16;101500.31;;;10.39;100.00
83514;BME280;73447;53.262;10.424;2024-02-15T05:52:45;101499.66;;;10.44;100.00
83514;BME280;73447;53.262;10.424;2024-02-15T05:55:11;101500.22;;;10.46;100.00
83514;BME280;73447;53.262;10.424;2024-02-15T05:57:37;101504.06;;;10.57;100.00
83514;BME280;73447;53.262;10.424;2024-02-15T06:00:03;101521.47;;;10.43;100.00
83514;BME280;73447;53.262;10.424;2024-02-15T06:02:30;101503.16;;;10.45;100.00
83514;BME280;73447;53.262;10.424;2024-02-15T06:04:56;101504.41;;;10.42;100.00
83514;BME280;73447;53.262;10.424;2024-02-15T06:07:26;101504.50;;;10.54;100.00
83514;BME280;73447;53.262;10.424;2024-02-15T06:09:51;101509.59;;;10.62;100.00
83514;BME280;73447;53.262;10.424;2024-02-15T06:12:17;101514.56;;;10.47;100.00
83514;BME280;73447;53.262;10.424;2024-02-15T06:14:42;101512.59;;;10.54;100.00
83514;BME280;73447;53.262;10.424;2024-02-15T06:17:08;101514.72;;;10.52;100.00
83514;BME280;73447;53.262;10.424;2024-02-15T06:19:34;101519.59;;;10.62;100.00
83514;BME280;73447;53.262;10.424;2024-02-15T06:21:59;101516.97;;;10.55;100.00
83514;BME280;73447;53.262;10.424;2024-02-15T06:24:26;101523.53;;;10.40;100.00
83514;BME280;73447;53.262;10.424;2024-02-15T06:26:53;101516.22;;;10.48;100.00
83514;BME280;73447;53.262;10.424;2024-02-15T06:29:25;101521.47;;;10.61;100.00
83514;BME280;73447;53.262;10.424;2024-02-15T06:32:09;101526.44;;;10.46;100.00
83514;BME280;73447;53.262;10.424;2024-02-15T06:34:53;101526.88;;;10.43;100.00
83514;BME280;73447;53.262;10.424;2024-02-15T06:37:39;101526.97;;;10.29;100.00
83514;BME280;73447;53.262;10.424;2024-02-15T06:40:23;101524.25;;;10.54;100.00
83514;BME280;73447;53.262;10.424;2024-02-15T06:42:49;101522.06;;;10.45;100.00
83514;BME280;73447;53.262;10.424;2024-02-15T06:45:15;101524.63;;;10.58;100.00
83514;BME280;73447;53.262;10.424;2024-02-15T06:47:42;101533.16;;;10.55;100.00
83514;BME280;73447;53.262;10.424;2024-02-15T06:50:13;101531.97;;;10.51;100.00
83514;BME280;73447;53.262;10.424;2024-02-15T06:52:40;101528.50;;;10.62;100.00
83514;BME280;73447;53.262;10.424;2024-02-15T06:55:07;101530.47;;;10.55;100.00
83514;BME280;73447;53.262;10.424;2024-02-15T06:57:33;101523.72;;;10.46;100.00
83514;BME280;73447;53.262;10.424;2024-02-15T07:00:03;101528.13;;;10.40;100.00
83514;BME280;73447;53.262;10.424;2024-02-15T07:02:30;101528.06;;;10.47;100.00
83514;BME280;73447;53.262;10.424;2024-02-15T07:04:55;101522.22;;;10.50;100.00
83514;BME280;73447;53.262;10.424;2024-02-15T07:07:20;101528.06;;;10.47;100.00
83514;BME280;73447;53.262;10.424;2024-02-15T07:09:47;101521.31;;;10.56;100.00
83514;BME280;73447;53.262;10.424;2024-02-15T07:12:12;101529.59;;;10.61;100.00
83514;BME280;73447;53.262;10.424;2024-02-15T07:14:37;101533.19;;;10.73;100.00
83514;BME280;73447;53.262;10.424;2024-02-15T07:17:03;101526.81;;;10.68;99.88
83514;BME280;73447;53.262;10.424;2024-02-15T07:19:29;101527.03;;;10.66;99.10
83514;BME280;73447;53.262;10.424;2024-02-15T07:21:58;101523.34;;;10.79;99.46
83514;BME280;73447;53.262;10.424;2024-02-15T07:24:23;101525.22;;;10.79;99.47
83514;BME280;73447;53.262;10.424;2024-02-15T07:26:52;101522.97;;;10.57;100.00
83514;BME280;73447;53.262;10.424;2024-02-15T07:29:21;101511.28;;;10.63;99.86
83514;BME280;73447;53.262;10.424;2024-02-15T07:31:48;101526.72;;;10.93;99.14
83514;BME280;73447;53.262;10.424;2024-02-15T07:34:14;101518.63;;;10.74;99.75
83514;BME280;73447;53.262;10.424;2024-02-15T07:36:39;101529.72;;;10.85;99.42
83514;BME280;73447;53.262;10.424;2024-02-15T07:39:07;101539.03;;;10.89;99.53
83514;BME280;73447;53.262;10.424;2024-02-15T07:41:37;101532.88;;;10.63;99.62
83514;BME280;73447;53.262;10.424;2024-02-15T07:44:03;101544.28;;;10.84;100.00
83514;BME280;73447;53.262;10.424;2024-02-15T07:46:29;101540.81;;;10.95;99.06
83514;BME280;73447;53.262;10.424;2024-02-15T07:48:54;101544.19;;;10.90;98.83
83514;BME280;73447;53.262;10.424;2024-02-15T07:51:22;101538.19;;;11.07;99.13
83514;BME280;73447;53.262;10.424;2024-02-15T07:53:48;101542.56;;;11.08;98.13
83514;BME280;73447;53.262;10.424;2024-02-15T07:56:15;101544.50;;;11.01;98.29
83514;BME280;73447;53.262;10.424;2024-02-15T07:58:48;101536.00;;;10.97;98.79
83514;BME280;73447;53.262;10.424;2024-02-15T08:01:14;101540.09;;;10.88;97.99
83514;BME280;73447;53.262;10.424;2024-02-15T08:03:40;101541.19;;;11.17;98.28
83514;BME280;73447;53.262;10.424;2024-02-15T08:06:15;101535.84;;;11.10;98.23
83514;BME280;73447;53.262;10.424;2024-02-15T08:08:41;101542.25;;;11.16;98.14
83514;BME280;73447;53.262;10.424;2024-02-15T08:11:10;101537.47;;;11.30;97.27
83514;BME280;73447;53.262;10.424;2024-02-15T08:13:50;101525.63;;;11.12;97.80
83514;BME280;73447;53.262;10.424;2024-02-15T08:16:21;101505.34;;;11.22;96.82
83514;BME280;73447;53.262;10.424;2024-02-15T08:18:52;101520.19;;;11.31;97.64
83514;BME280;73447;53.262;10.424;2024-02-15T08:21:25;101532.88;;;11.30;97.43
83514;BME280;73447;53.262;10.424;2024-02-15T08:23:52;101532.88;;;11.30;97.25
83514;BME280;73447;53.262;10.424;2024-02-15T08:26:17;101542.63;;;11.20;96.70
83514;BME280;73447;53.262;10.424;2024-02-15T08:28:42;101541.88;;;11.43;98.02
83514;BME280;73447;53.262;10.424;2024-02-15T08:31:08;101531.69;;;11.57;96.01
83514;BME280;73447;53.262;10.424;2024-02-15T08:33:35;101535.91;;;11.52;96.50
83514;BME280;73447;53.262;10.424;2024-02-15T08:36:01;101520.88;;;11.57;95.38
83514;BME280;73447;53.262;10.424;2024-02-15T08:38:27;101532.94;;;11.84;95.11
83514;BME280;73447;53.262;10.424;2024-02-15T08:40:53;101534.13;;;11.88;93.84
83514;BME280;73447;53.262;10.424;2024-02-15T08:43:18;101528.28;;;11.92;94.51
83514;BME280;73447;53.262;10.424;2024-02-15T08:45:44;101521.28;;;11.72;95.31
83514;BME280;73447;53.262;10.424;2024-02-15T08:48:10;101533.38;;;11.81;94.90
83514;BME280;73447;53.262;10.424;2024-02-15T08:50:35;101531.31;;;11.83;95.71
83514;BME280;73447;53.262;10.424;2024-02-15T08:53:02;101530.22;;;11.84;94.81
83514;BME280;73447;53.262;10.424;2024-02-15T08:55:31;101526.19;;;11.63;95.50
83514;BME280;73447;53.262;10.424;2024-02-15T08:57:57;101528.81;;;11.82;94.67
83514;BME280;73447;53.262;10.424;2024-02-15T09:00:22;101527.22;;;12.04;93.65
83514;BME280;73447;53.262;10.424;2024-02-15T09:02:49;101516.16;;;12.06;93.46
83514;BME280;73447;53.262;10.424;2024-02-15T09:05:14;101525.59;;;12.51;92.67
83514;BME280;73447;53.262;10.424;2024-02-15T09:07:41;101523.59;;;12.34;92.20
83514;BME280;73447;53.262;10.424;2024-02-15T09:10:08;101524.88;;;12.55;91.40
83514;BME280;73447;53.262;10.424;2024-02-15T09:12:36;101526.06;;;12.36;90.96
83514;BME280;73447;53.262;10.424;2024-02-15T09:15:03;101527.81;;;11.95;93.15
83514;BME280;73447;53.262;10.424;2024-02-15T09:17:29;101523.13;;;12.02;94.22
83514;BME280;73447;53.262;10.424;2024-02-15T09:19:57;101526.88;;;12.24;91.99
83514;BME280;73447;53.262;10.424;2024-02-15T09:22:23;101528.19;;;12.22;91.79
83514;BME280;73447;53.262;10.424;2024-02-15T09:24:48;101519.69;;;11.95;93.85
83514;BME280;73447;53.262;10.424;2024-02-15T09:27:13;101520.19;;;12.15;93.97
83514;BME280;73447;53.262;10.424;2024-02-15T09:29:39;101519.34;;;12.15;93.07
83514;BME280;73447;53.262;10.424;2024-02-15T09:32:06;101523.00;;;12.20;92.94
83514;BME280;73447;53.262;10.424;2024-02-15T09:34:31;101524.19;;;12.13;93.14
83514;BME280;73447;53.262;10.424;2024-02-15T09:36:58;101529.00;;;11.99;92.73
83514;BME280;73447;53.262;10.424;2024-02-15T09:39:23;101535.13;;;12.18;93.48
83514;BME280;73447;53.262;10.424;2024-02-15T09:41:49;101531.47;;;12.12;93.17
83514;BME280;73447;53.262;10.424;2024-02-15T09:44:23;101524.84;;;11.96;92.75
83514;BME280;73447;53.262;10.424;2024-02-15T09:47:04;101521.81;;;11.93;93.44
83514;BME280;73447;53.262;10.424;2024-02-15T09:49:37;101526.47;;;11.85;93.77
83514;BME280;73447;53.262;10.424;2024-02-15T09:52:06;101522.56;;;11.81;93.92
83514;BME280;73447;53.262;10.424;2024-02-15T09:54:40;101522.06;;;11.61;95.16
83514;BME280;73447;53.262;10.424;2024-02-15T09:57:09;101531.59;;;11.94;95.09
83514;BME280;73447;53.262;10.424;2024-02-15T09:59:36;101525.59;;;11.92;93.28
83514;BME280;73447;53.262;10.424;2024-02-15T10:02:02;101537.34;;;11.97;93.80
83514;BME280;73447;53.262;10.424;2024-02-15T10:04:28;101530.09;;;11.79;94.21
83514;BME280;73447;53.262;10.424;2024-02-15T10:06:53;101532.69;;;11.74;94.68
83514;BME280;73447;53.262;10.424;2024-02-15T10:11:58;101537.53;;;11.84;93.74
83514;BME280;73447;53.262;10.424;2024-02-15T10:14:24;101532.69;;;11.86;94.71
83514;BME280;73447;53.262;10.424;2024-02-15T10:16:54;101543.13;;;12.01;93.93
83514;BME280;73447;53.262;10.424;2024-02-15T10:19:23;101530.34;;;11.89;93.29
83514;BME280;73447;53.262;10.424;2024-02-15T10:21:53;101530.34;;;11.89;93.23
83514;BME280;73447;53.262;10.424;2024-02-15T10:24:24;101538.22;;;11.79;93.69
83514;BME280;73447;53.262;10.424;2024-02-15T10:26:50;101542.41;;;11.94;93.14
83514;BME280;73447;53.262;10.424;2024-02-15T10:29:16;101556.31;;;12.09;92.87
83514;BME280;73447;53.262;10.424;2024-02-15T10:32:03;101554.03;;;11.94;93.68
83514;BME280;73447;53.262;10.424;2024-02-15T10:34:30;101551.00;;;12.02;92.61
83514;BME280;73447;53.262;10.424;2024-02-15T10:37:16;101538.16;;;11.98;92.90
83514;BME280;73447;53.262;10.424;2024-02-15T10:39:42;101547.53;;;11.83;93.06
83514;BME280;73447;53.262;10.424;2024-02-15T10:42:08;101542.44;;;12.17;92.70
83514;BME280;73447;53.262;10.424;2024-02-15T10:44:37;101548.31;;;12.14;93.02
83514;BME280;73447;53.262;10.424;2024-02-15T10:47:06;101543.34;;;12.11;92.94
83514;BME280;73447;53.262;10.424;2024-02-15T10:49:34;101540.31;;;12.07;92.72
83514;BME280;73447;53.262;10.424;2024-02-15T10:52:01;101541.63;;;12.17;92.72
83514;BME280;73447;53.262;10.424;2024-02-15T10:54:50;101530.66;;;12.00;92.83
83514;BME280;73447;53.262;10.424;2024-02-15T10:57:20;101529.47;;;11.96;93.52
83514;BME280;73447;53.262;10.424;2024-02-15T10:59:55;101529.00;;;11.99;92.71
83514;BME280;73447;53.262;10.424;2024-02-15T11:02:26;101517.47;;;12.03;94.30
83514;BME280;73447;53.262;10.424;2024-02-15T11:05:03;101525.03;;;12.37;93.26
83514;BME280;73447;53.262;10.424;2024-02-15T11:07:34;101509.78;;;12.59;92.24
83514;BME280;73447;53.262;10.424;2024-02-15T11:09:59;101505.59;;;12.92;90.49
83514;BME280;73447;53.262;10.424;2024-02-15T11:12:26;101516.13;;;12.77;91.52
83514;BME280;73447;53.262;10.424;2024-02-15T11:14:52;101502.59;;;12.77;90.81
83514;BME280;73447;53.262;10.424;2024-02-15T11:20:07;101509.28;;;12.74;91.34
83514;BME280;73447;53.262;10.424;2024-02-15T11:22:34;101508.25;;;12.52;91.29
83514;BME280;73447;53.262;10.424;2024-02-15T11:25:04;101504.91;;;12.85;90.04
83514;BME280;73447;53.262;10.424;2024-02-15T11:27:35;101508.28;;;12.40;91.54
83514;BME280;73447;53.262;10.424;2024-02-15T11:30:02;101494.59;;;12.58;91.29
83514;BME280;73447;53.262;10.424;2024-02-15T11:32:49;101491.34;;;12.33;91.94
83514;BME280;73447;53.262;10.424;2024-02-15T11:35:20;101490.63;;;12.90;91.19
83514;BME280;73447;53.262;10.424;2024-02-15T11:40:13;101487.06;;;13.01;89.84
83514;BME280;73447;53.262;10.424;2024-02-15T11:42:39;101480.44;;;13.09;89.84
83514;BME280;73447;53.262;10.424;2024-02-15T11:45:08;101475.03;;;13.09;89.04
83514;BME280;73447;53.262;10.424;2024-02-15T11:47:37;101476.69;;;13.27;88.99
83514;BME280;73447;53.262;10.424;2024-02-15T11:50:14;101469.00;;;13.07;89.65
83514;BME280;73447;53.262;10.424;2024-02-15T11:52:52;101470.66;;;13.08;88.76
83514;BME280;73447;53.262;10.424;2024-02-15T11:55:21;101465.56;;;12.83;90.97
83514;BME280;73447;53.262;10.424;2024-02-15T11:58:00;101465.38;;;12.60;90.70
83514;BME280;73447;53.262;10.424;2024-02-15T12:00:35;101463.00;;;12.76;91.35
83514;BME280;73447;53.262;10.424;2024-02-15T12:03:20;101460.22;;;12.59;92.55
83514;BME280;73447;53.262;10.424;2024-02-15T12:06:04;101457.16;;;12.55;91.77
83514;BME280;73447;53.262;10.424;2024-02-15T12:08:49;101457.19;;;12.32;91.48
83514;BME280;73447;53.262;10.424;2024-02-15T12:11:34;101450.50;;;12.22;92.14
83514;BME280;73447;53.262;10.424;2024-02-15T12:14:18;101457.63;;;12.52;92.67
83514;BME280;73447;53.262;10.424;2024-02-15T12:17:04;101456.59;;;12.18;93.05
83514;BME280;73447;53.262;10.424;2024-02-15T12:19:49;101450.84;;;12.14;93.04
83514;BME280;73447;53.262;10.424;2024-02-15T12:22:20;101444.38;;;12.27;93.67
83514;BME280;73447;53.262;10.424;2024-02-15T12:24:56;101445.31;;;12.21;93.61
83514;BME280;73447;53.262;10.424;2024-02-15T12:27:22;101444.03;;;12.23;94.64
83514;BME280;73447;53.262;10.424;2024-02-15T12:29:53;101441.34;;;12.00;95.21
83514;BME280;73447;53.262;10.424;2024-02-15T12:32:23;101443.31;;;12.16;95.61
83514;BME280;73447;53.262;10.424;2024-02-15T12:34:49;101446.47;;;12.01;94.91
83514;BME280;73447;53.262;10.424;2024-02-15T12:37:18;101443.38;;;11.74;95.90
83514;BME280;73447;53.262;10.424;2024-02-15T12:39:44;101440.84;;;11.91;96.42
83514;BME280;73447;53.262;10.424;2024-02-15T12:42:09;101440.84;;;11.91;96.33
83514;BME280;73447;53.262;10.424;2024-02-15T12:44:35;101436.94;;;11.75;95.73
83514;BME280;73447;53.262;10.424;2024-02-15T12:47:01;101441.19;;;11.95;96.37
83514;BME280;73447;53.262;10.424;2024-02-15T12:49:29;101436.84;;;11.94;96.03